Time;durP1;ratioP1;P1;durP2;ratioP2;P2;SDS_P1;SDS_P2;PMS_P1;PMS_P2;Temp;Humidity;BMP_temperature;BMP_pressure;BME280_temperature;BME280_humidity;BME280_pressure;Samples;Min_cycle;Max_cycle;Signal;HPM_P1;HPM_P2
2024/02/16 00:02:15;;;;;;;2.47;1.00;;;13.20;99.90;;;;;;5058468;28;20494;-81
2024/02/16 00:04:42;;;;;;;2.40;1.30;;;13.20;99.90;;;;;;5058006;28;20523;-80
2024/02/16 00:07:09;;;;;;;2.97;1.43;;;13.20;99.90;;;;;;5057257;28;20955;-80
2024/02/16 00:09:38;;;;;;;3.00;1.50;;;13.30;99.90;;;;;;5051294;28;20541;-80
2024/02/16 00:12:07;;;;;;;4.20;1.50;;;13.30;99.90;;;;;;5056762;28;20527;-80
2024/02/16 00:14:34;;;;;;;3.20;1.47;;;13.20;99.90;;;;;;5056797;28;20451;-80
2024/02/16 00:17:00;;;;;;;2.80;1.73;;;13.30;99.90;;;;;;5055950;28;20444;-80
2024/02/16 00:19:27;;;;;;;3.10;1.20;;;13.20;99.90;;;;;;5057266;28;20483;-79
2024/02/16 00:21:55;;;;;;;2.63;1.30;;;13.10;99.90;;;;;;5057116;28;20978;-79
2024/02/16 00:24:22;;;;;;;2.60;1.30;;;13.10;99.90;;;;;;5061121;28;20468;-84
2024/02/16 00:26:49;;;;;;;3.10;1.33;;;13.00;99.90;;;;;;5061366;28;20451;-83
2024/02/16 00:29:17;;;;;;;2.50;1.67;;;13.00;99.90;;;;;;5057068;28;20452;-79
2024/02/16 00:31:45;;;;;;;3.40;1.63;;;13.00;99.90;;;;;;5057061;28;20537;-79
2024/02/16 00:34:13;;;;;;;2.37;1.43;;;13.10;99.90;;;;;;5057488;28;20899;-80
2024/02/16 00:36:40;;;;;;;2.70;1.40;;;13.10;99.90;;;;;;5056619;28;20452;-79
2024/02/16 00:39:07;;;;;;;4.23;1.80;;;13.10;99.90;;;;;;5057772;28;20463;-81
2024/02/16 00:41:33;;;;;;;4.77;1.57;;;13.10;99.90;;;;;;5055891;28;20500;-80
2024/02/16 00:44:00;;;;;;;3.20;1.67;;;13.10;99.90;;;;;;5057049;28;20484;-79
2024/02/16 00:46:29;;;;;;;4.20;1.50;;;13.10;99.90;;;;;;5055977;28;20455;-79
2024/02/16 00:48:56;;;;;;;2.30;1.80;;;13.10;99.90;;;;;;5056808;28;20448;-81
2024/02/16 00:51:25;;;;;;;2.27;1.37;;;13.10;99.90;;;;;;5056721;28;20487;-80
2024/02/16 00:53:52;;;;;;;2.90;1.50;;;13.10;99.90;;;;;;5056482;28;20463;-77
2024/02/16 00:56:21;;;;;;;2.93;1.40;;;13.20;99.90;;;;;;5056583;28;20456;-82
2024/02/16 00:58:48;;;;;;;2.80;1.30;;;13.20;99.90;;;;;;5055051;28;20459;-80
2024/02/16 01:01:15;;;;;;;2.10;1.40;;;13.30;99.90;;;;;;5056385;28;21200;-78
2024/02/16 01:03:43;;;;;;;2.40;1.20;;;13.30;99.90;;;;;;5055912;28;20491;-80
2024/02/16 01:06:10;;;;;;;5.17;1.97;;;13.20;99.90;;;;;;5056143;28;20466;-79
2024/02/16 01:08:37;;;;;;;5.57;1.70;;;13.30;99.90;;;;;;5055642;28;20527;-79
2024/02/16 01:11:06;;;;;;;2.50;1.43;;;13.30;99.90;;;;;;5056269;28;20483;-79
2024/02/16 01:13:32;;;;;;;2.93;1.20;;;13.20;99.90;;;;;;5056736;28;20455;-80
2024/02/16 01:15:59;;;;;;;3.83;1.30;;;13.20;99.90;;;;;;5051078;28;20648;-82
2024/02/16 01:18:27;;;;;;;3.07;1.33;;;13.10;99.90;;;;;;5056306;28;20457;-79
2024/02/16 01:20:55;;;;;;;2.40;1.13;;;13.00;99.90;;;;;;5056580;28;20468;-79
2024/02/16 01:23:22;;;;;;;2.83;1.40;;;13.00;99.90;;;;;;5056272;28;20499;-81
2024/02/16 01:25:49;;;;;;;6.23;1.80;;;12.90;99.90;;;;;;5055378;28;20470;-81
2024/02/16 01:28:16;;;;;;;2.40;1.17;;;12.80;99.90;;;;;;5056237;28;20524;-78
2024/02/16 01:30:43;;;;;;;3.23;1.80;;;12.80;99.90;;;;;;5055980;28;20986;-81
2024/02/16 01:33:09;;;;;;;2.70;1.63;;;12.70;99.90;;;;;;5052304;28;20545;-81
2024/02/16 01:35:36;;;;;;;3.93;1.73;;;12.70;99.90;;;;;;5056790;28;20884;-81
2024/02/16 01:38:06;;;;;;;3.13;1.53;;;12.60;99.90;;;;;;5056895;28;20464;-78
2024/02/16 01:40:33;;;;;;;3.57;1.60;;;12.60;99.90;;;;;;5056980;28;20475;-79
2024/02/16 01:43:00;;;;;;;2.50;1.70;;;12.60;99.90;;;;;;5056752;28;20497;-81
2024/02/16 01:45:26;;;;;;;3.80;2.00;;;12.60;99.90;;;;;;5055729;28;20888;-80
2024/02/16 01:47:55;;;;;;;6.63;2.53;;;12.50;99.90;;;;;;5056857;28;20465;-81
2024/02/16 01:50:23;;;;;;;5.23;1.77;;;12.50;99.90;;;;;;5068332;28;20456;-80
2024/02/16 01:52:52;;;;;;;3.53;1.57;;;12.60;99.90;;;;;;5056381;28;20458;-80
2024/02/16 01:55:28;;;;;;;2.90;1.80;;;12.70;99.90;;;;;;5056517;28;20457;-81
2024/02/16 01:57:56;;;;;;;2.77;1.70;;;12.80;99.90;;;;;;5064650;28;20505;-79
2024/02/16 02:00:23;;;;;;;2.00;1.30;;;13.00;99.90;;;;;;5055783;28;20540;-81
2024/02/16 02:02:51;;;;;;;3.83;1.50;;;13.00;99.90;;;;;;5056030;28;20581;-80
2024/02/16 02:05:21;;;;;;;2.90;1.40;;;12.90;99.90;;;;;;5055478;28;20447;-81
2024/02/16 02:07:48;;;;;;;3.93;1.70;;;13.00;99.90;;;;;;5056511;28;20539;-79
2024/02/16 02:10:15;;;;;;;3.30;1.30;;;13.00;99.90;;;;;;5061747;28;20444;-81
2024/02/16 02:12:44;;;;;;;3.27;1.40;;;13.00;99.90;;;;;;5055870;28;20452;-81
2024/02/16 02:15:11;;;;;;;2.10;1.40;;;13.10;99.90;;;;;;5055483;28;20482;-81
2024/02/16 02:17:39;;;;;;;4.60;1.80;;;13.10;99.90;;;;;;5055382;28;20448;-80
2024/02/16 02:20:10;;;;;;;2.80;1.40;;;13.10;99.90;;;;;;5055096;28;20622;-81
2024/02/16 02:22:38;;;;;;;2.80;1.93;;;13.10;99.90;;;;;;5054895;28;21039;-80
2024/02/16 02:25:06;;;;;;;4.80;1.63;;;13.10;99.90;;;;;;5055361;28;20454;-80
2024/02/16 02:27:35;;;;;;;2.87;1.30;;;13.10;99.90;;;;;;5054817;28;20463;-79
2024/02/16 02:30:02;;;;;;;3.20;1.67;;;13.10;99.90;;;;;;5055412;28;20545;-82
2024/02/16 02:32:29;;;;;;;6.10;2.13;;;13.10;99.90;;;;;;5048590;28;20882;-80
2024/02/16 02:34:56;;;;;;;2.27;1.17;;;13.10;99.90;;;;;;5055710;28;20490;-80
2024/02/16 02:37:23;;;;;;;3.20;1.40;;;13.20;99.90;;;;;;5054780;28;20466;-81
2024/02/16 02:39:51;;;;;;;2.80;1.30;;;13.20;99.90;;;;;;5064284;28;20455;-81
2024/02/16 02:42:18;;;;;;;3.50;1.63;;;13.10;99.90;;;;;;5056085;28;20523;-81
2024/02/16 02:44:49;;;;;;;2.57;1.20;;;13.10;99.90;;;;;;5055238;28;20558;-82
2024/02/16 02:47:16;;;;;;;4.23;1.50;;;13.10;99.90;;;;;;5055140;28;20460;-80
2024/02/16 02:49:43;;;;;;;4.53;1.73;;;13.10;99.90;;;;;;5054953;28;20445;-82
2024/02/16 02:52:10;;;;;;;3.53;1.73;;;13.10;99.90;;;;;;5054387;28;20554;-81
2024/02/16 02:54:37;;;;;;;3.33;1.47;;;13.10;99.90;;;;;;5054908;28;20458;-83
2024/02/16 02:57:05;;;;;;;4.30;1.40;;;13.10;99.90;;;;;;5053255;28;20825;-79
2024/02/16 02:59:32;;;;;;;2.50;1.30;;;13.20;99.90;;;;;;5055015;28;20464;-81
2024/02/16 03:01:59;;;;;;;2.63;1.67;;;13.30;99.90;;;;;;5054927;28;20509;-82
2024/02/16 03:04:26;;;;;;;3.03;1.43;;;13.40;99.90;;;;;;5055544;28;20515;-82
2024/02/16 03:06:53;;;;;;;9.47;1.83;;;13.40;99.90;;;;;;5052326;28;20455;-81
2024/02/16 03:09:20;;;;;;;3.50;1.23;;;13.50;99.90;;;;;;5055233;28;20537;-83
2024/02/16 03:11:46;;;;;;;3.23;1.30;;;13.30;99.90;;;;;;5056376;28;20521;-82
2024/02/16 03:14:17;;;;;;;3.77;1.40;;;13.30;99.90;;;;;;5064220;28;20454;-81
2024/02/16 03:16:44;;;;;;;6.17;1.60;;;13.30;99.90;;;;;;5063571;28;21008;-81
2024/02/16 03:19:10;;;;;;;3.53;1.53;;;13.20;99.90;;;;;;5058791;28;20455;-81
2024/02/16 03:21:37;;;;;;;2.03;1.50;;;13.20;99.90;;;;;;5067868;28;20478;-81
2024/02/16 03:24:04;;;;;;;2.87;1.40;;;13.10;99.90;;;;;;5055041;28;21033;-81
2024/02/16 03:26:32;;;;;;;2.00;1.33;;;13.10;99.90;;;;;;5054794;28;20941;-82
2024/02/16 03:28:59;;;;;;;6.23;1.57;;;12.90;99.90;;;;;;5062095;28;20455;-80
2024/02/16 03:31:29;;;;;;;3.17;1.50;;;12.90;99.90;;;;;;5064071;28;20489;-82
2024/02/16 03:33:57;;;;;;;2.60;1.60;;;12.80;99.90;;;;;;5071586;28;20454;-81
2024/02/16 03:36:24;;;;;;;2.60;1.27;;;12.80;99.90;;;;;;5062221;28;20454;-80
2024/02/16 03:38:51;;;;;;;2.67;1.70;;;12.70;99.90;;;;;;5058538;28;20500;-79
2024/02/16 03:41:20;;;;;;;2.63;1.40;;;12.70;99.90;;;;;;5054185;28;20461;-85
2024/02/16 03:43:47;;;;;;;4.40;2.20;;;12.70;99.90;;;;;;5053476;28;21014;-80
2024/02/16 03:46:14;;;;;;;2.10;1.27;;;12.70;99.90;;;;;;5055876;28;20451;-81
2024/02/16 03:48:42;;;;;;;2.83;1.47;;;12.70;99.90;;;;;;5058799;28;20465;-81
2024/02/16 03:51:09;;;;;;;4.13;1.60;;;12.70;99.90;;;;;;5066411;28;20544;-82
2024/02/16 03:53:36;;;;;;;3.37;1.60;;;12.70;99.90;;;;;;5055724;28;20464;-80
2024/02/16 03:56:03;;;;;;;2.77;1.43;;;12.70;99.90;;;;;;5064742;28;20472;-81
2024/02/16 03:58:30;;;;;;;2.30;1.80;;;12.70;99.90;;;;;;5058418;28;20546;-81
2024/02/16 04:00:58;;;;;;;2.30;1.30;;;12.70;99.90;;;;;;5058224;28;20479;-80
2024/02/16 04:03:25;;;;;;;3.93;1.50;;;12.70;99.90;;;;;;5058282;28;21339;-80
2024/02/16 04:05:53;;;;;;;2.47;1.40;;;12.70;99.90;;;;;;5056597;28;20454;-82
2024/02/16 04:08:21;;;;;;;2.83;1.50;;;12.80;99.90;;;;;;5058112;28;20460;-82
2024/02/16 04:10:47;;;;;;;2.50;1.50;;;12.80;99.90;;;;;;5055649;28;21043;-81
2024/02/16 04:13:14;;;;;;;3.63;1.53;;;12.70;99.90;;;;;;5057524;28;20464;-81
2024/02/16 04:15:41;;;;;;;2.30;1.27;;;12.70;99.90;;;;;;5056696;28;20494;-80
2024/02/16 04:18:08;;;;;;;3.10;1.50;;;12.80;99.90;;;;;;5057693;28;20455;-81
2024/02/16 04:20:35;;;;;;;2.03;1.40;;;12.90;99.90;;;;;;5057861;28;20570;-81
2024/02/16 04:23:04;;;;;;;2.33;1.40;;;12.90;99.90;;;;;;5057205;28;20477;-82
2024/02/16 04:25:30;;;;;;;2.40;1.73;;;12.90;99.90;;;;;;5056426;28;20482;-81
2024/02/16 04:28:00;;;;;;;4.47;1.50;;;13.10;99.90;;;;;;5051356;28;20464;-81
2024/02/16 04:30:26;;;;;;;3.07;1.20;;;13.20;99.90;;;;;;5058017;28;20455;-81
2024/02/16 04:32:54;;;;;;;3.90;1.30;;;13.30;99.90;;;;;;5057117;28;20658;-81
2024/02/16 04:35:21;;;;;;;2.00;1.23;;;13.30;99.90;;;;;;5057519;28;20951;-80
2024/02/16 04:37:47;;;;;;;2.23;1.33;;;13.40;99.90;;;;;;5057496;28;20835;-81
2024/02/16 04:40:16;;;;;;;4.27;1.70;;;13.40;99.90;;;;;;5056809;28;20461;-82
2024/02/16 04:42:42;;;;;;;2.93;1.20;;;13.30;99.90;;;;;;5057297;28;20541;-82
2024/02/16 04:45:12;;;;;;;2.43;1.40;;;13.30;99.90;;;;;;5067675;28;20573;-80
2024/02/16 04:47:39;;;;;;;4.97;1.70;;;13.20;99.90;;;;;;5063205;28;20526;-79
2024/02/16 04:50:10;;;;;;;2.30;1.20;;;13.10;99.90;;;;;;5058383;28;20830;-80
2024/02/16 04:52:40;;;;;;;6.33;1.40;;;13.10;99.90;;;;;;5057641;28;20517;-80
2024/02/16 04:55:07;;;;;;;2.70;1.70;;;13.10;99.90;;;;;;5064491;28;20453;-81
2024/02/16 04:57:35;;;;;;;2.63;1.57;;;13.10;99.90;;;;;;5054816;28;20455;-80
2024/02/16 05:00:03;;;;;;;2.80;1.40;;;13.20;99.90;;;;;;5057420;28;20449;-80
2024/02/16 05:02:30;;;;;;;3.73;1.60;;;13.20;99.90;;;;;;5052642;28;20557;-82
2024/02/16 05:04:56;;;;;;;2.20;1.27;;;13.10;99.90;;;;;;5056659;28;20521;-80
2024/02/16 05:07:23;;;;;;;2.63;1.67;;;13.00;99.90;;;;;;5056459;28;20468;-81
2024/02/16 05:09:55;;;;;;;4.20;1.70;;;12.90;99.90;;;;;;5056224;28;20466;-81
2024/02/16 05:12:22;;;;;;;3.27;1.70;;;12.80;99.90;;;;;;5056267;28;20475;-82
2024/02/16 05:14:52;;;;;;;1.90;1.40;;;12.70;99.90;;;;;;5064998;28;20445;-80
2024/02/16 05:17:19;;;;;;;2.30;1.27;;;12.70;99.90;;;;;;5056193;28;20543;-81
2024/02/16 05:19:46;;;;;;;3.07;1.43;;;12.60;99.90;;;;;;5055082;28;20471;-82
2024/02/16 05:22:13;;;;;;;2.30;1.40;;;12.60;99.90;;;;;;5054797;28;20491;-81
2024/02/16 05:24:42;;;;;;;2.10;1.30;;;12.50;99.90;;;;;;5046955;28;20504;-82
2024/02/16 05:27:11;;;;;;;4.30;1.70;;;12.40;99.90;;;;;;5055604;28;20471;-83
2024/02/16 05:29:37;;;;;;;2.73;1.57;;;12.40;99.90;;;;;;5056131;28;20459;-82
2024/02/16 05:32:07;;;;;;;2.93;1.60;;;12.40;99.90;;;;;;5059292;28;20468;-81
2024/02/16 05:34:37;;;;;;;3.63;1.93;;;12.50;99.90;;;;;;5061342;28;20450;-81
2024/02/16 05:37:06;;;;;;;3.50;1.60;;;12.50;99.90;;;;;;5062460;28;20461;-79
2024/02/16 05:39:35;;;;;;;3.13;1.50;;;12.50;99.90;;;;;;5058524;28;20514;-83
2024/02/16 05:42:01;;;;;;;2.77;1.30;;;12.50;99.90;;;;;;5063728;28;20483;-80
2024/02/16 05:44:30;;;;;;;5.70;1.77;;;12.50;99.90;;;;;;5062460;28;20517;-81
2024/02/16 05:47:07;;;;;;;2.83;1.50;;;12.60;99.90;;;;;;5063459;28;20467;-82
2024/02/16 05:49:34;;;;;;;2.23;1.30;;;12.60;99.90;;;;;;5071665;28;20453;-80
2024/02/16 05:54:42;;;;;;;7.57;1.70;;;12.40;99.90;;;;;;5065039;28;20435;-81
2024/02/16 05:57:12;;;;;;;3.50;1.57;;;12.60;99.90;;;;;;5061644;28;20449;-80
2024/02/16 05:59:42;;;;;;;5.70;2.03;;;12.70;99.90;;;;;;5059991;28;20450;-79
2024/02/16 06:02:11;;;;;;;2.77;1.60;;;12.70;99.90;;;;;;5058548;28;20547;-80
2024/02/16 06:04:38;;;;;;;3.40;2.00;;;12.80;99.90;;;;;;5067290;28;20529;-81
2024/02/16 06:07:05;;;;;;;2.60;1.53;;;12.90;99.90;;;;;;5061307;28;20470;-81
2024/02/16 06:09:34;;;;;;;7.37;1.80;;;12.90;99.90;;;;;;5058747;28;21108;-79
2024/02/16 06:12:04;;;;;;;3.63;1.90;;;12.90;99.90;;;;;;5056966;28;20555;-81
2024/02/16 06:14:32;;;;;;;4.07;1.60;;;12.90;99.90;;;;;;5053430;28;20546;-80
2024/02/16 06:16:59;;;;;;;2.97;1.87;;;13.00;99.90;;;;;;5055797;28;20436;-80
2024/02/16 06:19:27;;;;;;;4.83;1.83;;;13.00;99.90;;;;;;5056220;28;20519;-81
2024/02/16 06:21:54;;;;;;;3.67;2.00;;;12.90;99.90;;;;;;5056138;28;20474;-81
2024/02/16 06:24:21;;;;;;;3.63;1.97;;;12.80;99.90;;;;;;5050767;28;20870;-80
2024/02/16 06:26:48;;;;;;;2.43;1.57;;;12.70;99.90;;;;;;5051131;28;20539;-82
2024/02/16 06:29:14;;;;;;;7.43;4.20;;;12.70;99.90;;;;;;5054587;28;21017;-80
2024/02/16 06:31:41;;;;;;;8.03;3.30;;;12.60;99.90;;;;;;5036887;28;20971;-79
2024/02/16 06:34:11;;;;;;;7.50;3.00;;;12.60;99.90;;;;;;5055957;28;20447;-80
2024/02/16 06:36:39;;;;;;;4.80;2.73;;;12.60;99.90;;;;;;5051530;28;20473;-81
2024/02/16 06:39:06;;;;;;;3.40;2.60;;;12.50;99.90;;;;;;5055435;28;20543;-80
2024/02/16 06:41:33;;;;;;;4.33;1.60;;;12.50;99.90;;;;;;5057779;28;20473;-81
2024/02/16 06:44:01;;;;;;;3.87;2.00;;;12.40;99.90;;;;;;5059234;28;21217;-81
2024/02/16 06:46:29;;;;;;;5.43;1.70;;;12.30;99.90;;;;;;5059432;28;20521;-80
2024/02/16 06:48:56;;;;;;;3.30;1.80;;;12.40;99.90;;;;;;5061219;28;20444;-81
2024/02/16 06:51:24;;;;;;;2.97;2.10;;;12.40;99.90;;;;;;5062680;28;20483;-81
2024/02/16 06:53:52;;;;;;;3.40;1.80;;;12.40;99.90;;;;;;5060336;28;20447;-81
2024/02/16 06:56:19;;;;;;;3.53;1.60;;;12.40;99.90;;;;;;5058380;28;20474;-81
2024/02/16 06:58:46;;;;;;;3.30;2.10;;;12.50;99.90;;;;;;5067983;28;20485;-81
2024/02/16 07:01:13;;;;;;;2.83;1.93;;;12.50;99.90;;;;;;5061534;28;20603;-81
2024/02/16 07:03:40;;;;;;;4.23;2.23;;;12.50;99.90;;;;;;5062783;28;20436;-80
2024/02/16 07:06:09;;;;;;;2.80;1.83;;;12.40;99.90;;;;;;5055603;28;20518;-81
2024/02/16 07:08:39;;;;;;;4.90;2.00;;;12.40;99.90;;;;;;5059225;28;20492;-80
2024/02/16 07:11:08;;;;;;;3.23;2.10;;;12.40;99.90;;;;;;5058871;28;20498;-80
2024/02/16 07:13:35;;;;;;;2.80;2.10;;;12.50;99.90;;;;;;5055743;28;20460;-80
2024/02/16 07:16:06;;;;;;;2.93;1.53;;;12.60;99.90;;;;;;5053465;28;20455;-80
2024/02/16 07:18:33;;;;;;;3.80;2.73;;;12.70;99.90;;;;;;5056847;28;20463;-80
2024/02/16 07:21:02;;;;;;;3.67;2.03;;;12.80;99.90;;;;;;5056586;28;20491;-82
2024/02/16 07:23:33;;;;;;;3.73;2.10;;;12.90;99.90;;;;;;5063108;28;20446;-80
2024/02/16 07:26:01;;;;;;;7.23;2.03;;;13.00;99.90;;;;;;5064095;28;20511;-81
2024/02/16 07:28:29;;;;;;;3.40;2.10;;;13.10;99.90;;;;;;5073405;28;20484;-80
2024/02/16 07:30:55;;;;;;;5.43;2.10;;;13.10;99.90;;;;;;5064856;28;20561;-80
2024/02/16 07:33:24;;;;;;;4.20;2.27;;;13.10;99.90;;;;;;5063606;28;20970;-81
2024/02/16 07:35:51;;;;;;;2.93;1.83;;;13.20;99.90;;;;;;5059658;28;20211;-80
2024/02/16 07:38:18;;;;;;;4.83;2.10;;;13.30;99.90;;;;;;5053501;28;20461;-81
2024/02/16 07:40:45;;;;;;;4.43;1.90;;;13.30;99.90;;;;;;5058973;28;21048;-81
2024/02/16 07:43:13;;;;;;;3.03;2.10;;;13.30;99.90;;;;;;5062334;28;20451;-80
2024/02/16 07:45:41;;;;;;;5.40;2.20;;;13.30;99.90;;;;;;5059507;28;20560;-81
2024/02/16 07:48:10;;;;;;;5.00;2.97;;;13.40;99.90;;;;;;5060869;28;20447;-82
2024/02/16 07:50:37;;;;;;;8.83;2.20;;;13.40;99.90;;;;;;5059318;28;20936;-81
2024/02/16 07:53:04;;;;;;;8.17;2.10;;;13.50;99.90;;;;;;5062912;28;20540;-79
2024/02/16 07:55:31;;;;;;;3.60;1.87;;;13.50;99.90;;;;;;5060897;28;20448;-81
2024/02/16 07:57:58;;;;;;;2.83;1.90;;;13.60;99.90;;;;;;5062375;28;20526;-80
2024/02/16 08:00:25;;;;;;;5.30;1.90;;;13.80;99.90;;;;;;5063666;28;20464;-81
2024/02/16 08:02:54;;;;;;;3.77;2.00;;;14.00;99.90;;;;;;5055526;28;20465;-79
2024/02/16 08:05:24;;;;;;;3.17;2.27;;;14.10;99.90;;;;;;5054628;28;20473;-81
2024/02/16 08:07:51;;;;;;;3.40;2.07;;;14.20;99.90;;;;;;5056597;28;20453;-78
2024/02/16 08:10:21;;;;;;;4.50;2.07;;;14.30;99.90;;;;;;5056352;28;20454;-80
2024/02/16 08:12:50;;;;;;;7.20;1.87;;;14.40;99.90;;;;;;5058091;28;20446;-81
2024/02/16 08:15:22;;;;;;;3.97;2.30;;;14.50;99.90;;;;;;5053210;28;20456;-79
2024/02/16 08:17:50;;;;;;;5.07;2.13;;;14.60;99.90;;;;;;5054761;28;21024;-80
2024/02/16 08:20:18;;;;;;;7.60;2.00;;;14.60;99.90;;;;;;5057404;28;20818;-79
2024/02/16 08:22:45;;;;;;;5.67;2.50;;;14.50;99.90;;;;;;5056780;28;20446;-80
2024/02/16 08:25:14;;;;;;;7.23;2.50;;;14.60;99.90;;;;;;5057427;28;20591;-82
2024/02/16 08:27:41;;;;;;;8.10;2.20;;;14.60;99.90;;;;;;5060182;28;20452;-79
2024/02/16 08:30:09;;;;;;;4.53;2.00;;;14.70;99.90;;;;;;5063895;28;20455;-79
2024/02/16 08:32:36;;;;;;;3.70;2.13;;;14.60;99.90;;;;;;5060675;28;20469;-80
2024/02/16 08:35:03;;;;;;;3.30;1.77;;;14.70;99.90;;;;;;5058907;28;20483;-78
2024/02/16 08:37:31;;;;;;;4.90;1.90;;;14.70;99.90;;;;;;5067234;28;21058;-81
2024/02/16 08:40:00;;;;;;;5.73;2.57;;;14.70;99.90;;;;;;5071708;28;20452;-81
2024/02/16 08:42:26;;;;;;;4.33;2.07;;;14.80;99.90;;;;;;5072277;28;20478;-79
2024/02/16 08:44:53;;;;;;;3.43;1.83;;;14.80;99.90;;;;;;5076116;28;20481;-81
2024/02/16 08:47:20;;;;;;;6.53;2.20;;;14.80;99.90;;;;;;5078130;28;20467;-81
2024/02/16 08:49:47;;;;;;;4.17;2.03;;;14.70;99.90;;;;;;5078569;28;20486;-83
2024/02/16 08:52:14;;;;;;;3.83;1.80;;;14.70;99.90;;;;;;5078223;28;20469;-81
2024/02/16 08:54:43;;;;;;;4.67;1.70;;;14.70;99.90;;;;;;5076938;28;20454;-81
2024/02/16 08:57:12;;;;;;;4.33;1.77;;;14.70;99.90;;;;;;5058580;28;20485;-81
2024/02/16 08:59:39;;;;;;;3.90;2.30;;;14.70;99.90;;;;;;5066714;28;20489;-80
2024/02/16 09:02:06;;;;;;;4.87;1.90;;;14.80;99.90;;;;;;5067635;28;20479;-82
2024/02/16 09:04:32;;;;;;;3.13;1.80;;;14.90;99.90;;;;;;5062034;28;20458;-81
2024/02/16 09:07:01;;;;;;;3.50;1.90;;;14.90;99.90;;;;;;5068229;28;20460;-83
2024/02/16 09:09:28;;;;;;;7.77;2.90;;;15.00;99.90;;;;;;5064936;28;20547;-79
2024/02/16 09:11:58;;;;;;;6.10;1.80;;;15.10;99.90;;;;;;5062521;28;20466;-82
2024/02/16 09:14:25;;;;;;;5.60;1.90;;;15.20;99.90;;;;;;5076624;28;20451;-81
2024/02/16 09:16:52;;;;;;;4.13;1.93;;;15.20;99.90;;;;;;5062937;28;20515;-81
2024/02/16 09:19:19;;;;;;;4.73;2.10;;;15.20;99.90;;;;;;5066088;28;20447;-80
2024/02/16 09:21:49;;;;;;;4.30;1.93;;;15.20;99.90;;;;;;5072412;28;20479;-81
2024/02/16 09:24:17;;;;;;;3.70;1.83;;;15.10;99.90;;;;;;5058163;28;20481;-81
2024/02/16 09:26:47;;;;;;;3.00;1.93;;;15.10;99.90;;;;;;5057829;28;20486;-80
2024/02/16 09:29:17;;;;;;;3.10;2.27;;;15.20;99.90;;;;;;5061610;28;20460;-81
2024/02/16 09:31:44;;;;;;;7.47;2.90;;;15.20;99.90;;;;;;5055474;28;20474;-82
2024/02/16 09:34:11;;;;;;;11.43;4.10;;;15.30;99.90;;;;;;5066272;28;20453;-81
2024/02/16 09:36:38;;;;;;;5.53;2.30;;;15.30;99.90;;;;;;5061761;28;20443;-81
2024/02/16 09:39:05;;;;;;;8.80;2.60;;;15.40;99.90;;;;;;5057194;28;20470;-81
2024/02/16 09:41:35;;;;;;;3.40;1.83;;;15.30;99.90;;;;;;5060632;28;20458;-83
2024/02/16 09:44:02;;;;;;;5.43;2.33;;;15.40;99.90;;;;;;5053428;28;20465;-81
2024/02/16 09:46:31;;;;;;;2.90;2.13;;;15.40;99.90;;;;;;5051976;28;21104;-80
2024/02/16 09:49:02;;;;;;;4.60;2.43;;;15.50;99.90;;;;;;5055042;28;20449;-80
2024/02/16 09:51:29;;;;;;;3.27;2.10;;;15.50;99.90;;;;;;5050379;28;20987;-80
2024/02/16 09:53:56;;;;;;;5.30;2.30;;;15.60;99.90;;;;;;5050965;28;20914;-80
2024/02/16 09:56:24;;;;;;;5.10;2.03;;;15.60;99.90;;;;;;5049170;28;20456;-82
2024/02/16 09:58:52;;;;;;;5.33;1.87;;;15.60;99.90;;;;;;5046998;28;20464;-78
2024/02/16 10:01:21;;;;;;;3.33;1.80;;;15.70;99.90;;;;;;5045912;28;20479;-80
2024/02/16 10:03:49;;;;;;;3.97;2.17;;;15.80;99.90;;;;;;5051523;28;20471;-81
2024/02/16 10:06:17;;;;;;;5.07;2.13;;;15.90;99.90;;;;;;5048027;28;20533;-79
2024/02/16 10:08:51;;;;;;;4.67;2.10;;;16.10;99.90;;;;;;5053181;28;20514;-80
2024/02/16 10:11:19;;;;;;;5.27;2.33;;;16.20;99.90;;;;;;5050553;28;20555;-80
2024/02/16 10:13:56;;;;;;;6.00;2.37;;;16.30;99.90;;;;;;5050797;28;20466;-82
2024/02/16 10:16:25;;;;;;;2.70;2.10;;;16.40;99.90;;;;;;5056007;28;20435;-80
2024/02/16 10:18:55;;;;;;;5.27;3.00;;;16.40;99.90;;;;;;5061648;28;20925;-82
2024/02/16 10:21:26;;;;;;;5.10;2.07;;;16.20;99.90;;;;;;5054586;28;21004;-83
2024/02/16 10:23:58;;;;;;;5.40;2.20;;;16.30;99.90;;;;;;5064124;28;20469;-81
2024/02/16 10:26:25;;;;;;;6.57;2.37;;;16.30;99.90;;;;;;5060635;28;21407;-81
2024/02/16 10:28:56;;;;;;;4.63;2.60;;;16.20;99.90;;;;;;5063597;28;20490;-83
2024/02/16 10:31:27;;;;;;;3.93;2.17;;;16.10;99.90;;;;;;5062289;28;20579;-84
2024/02/16 10:33:58;;;;;;;5.50;3.13;;;16.10;99.90;;;;;;5066508;28;20464;-83
2024/02/16 10:36:28;;;;;;;8.07;2.50;;;15.90;99.90;;;;;;5080191;28;20506;-85
2024/02/16 10:38:55;;;;;;;6.37;2.07;;;15.90;99.90;;;;;;5078066;28;20479;-83
2024/02/16 10:41:26;;;;;;;3.90;2.40;;;15.90;99.90;;;;;;5081086;28;20555;-83
2024/02/16 10:43:55;;;;;;;3.80;1.83;;;15.90;99.90;;;;;;5067888;28;20447;-83
2024/02/16 10:46:22;;;;;;;5.53;2.57;;;16.00;99.90;;;;;;5077527;28;20555;-83
2024/02/16 10:48:49;;;;;;;7.37;3.03;;;16.10;99.90;;;;;;5065937;28;20502;-84
2024/02/16 10:51:21;;;;;;;9.60;2.30;;;16.10;99.90;;;;;;5063419;28;20475;-81
2024/02/16 10:53:51;;;;;;;3.20;2.00;;;16.30;99.90;;;;;;5064913;28;21099;-82
2024/02/16 10:56:18;;;;;;;6.30;2.77;;;16.40;99.90;;;;;;5065054;28;20507;-82
2024/02/16 10:58:49;;;;;;;3.70;2.10;;;16.60;99.90;;;;;;5067812;28;20911;-83
2024/02/16 11:01:16;;;;;;;7.97;2.50;;;16.50;99.90;;;;;;5071804;28;20533;-81
2024/02/16 11:03:45;;;;;;;5.00;2.13;;;16.60;99.90;;;;;;5077338;28;20517;-84
2024/02/16 11:06:18;;;;;;;3.93;2.40;;;16.60;99.90;;;;;;5076599;28;20592;-81
2024/02/16 11:08:45;;;;;;;6.80;2.37;;;16.70;99.90;;;;;;5088433;28;20518;-82
2024/02/16 11:11:23;;;;;;;6.17;2.80;;;16.90;99.90;;;;;;5078583;28;20478;-81
2024/02/16 11:13:50;;;;;;;4.57;2.30;;;16.90;99.90;;;;;;5076893;28;20481;-82
2024/02/16 11:16:26;;;;;;;6.87;2.83;;;16.60;99.90;;;;;;5071383;28;20451;-81
2024/02/16 11:18:53;;;;;;;3.90;2.10;;;16.50;99.90;;;;;;5074652;28;20480;-81
2024/02/16 11:21:22;;;;;;;6.43;3.50;;;16.50;99.90;;;;;;5083809;28;20528;-81
2024/02/16 11:23:49;;;;;;;4.20;2.20;;;16.50;99.90;;;;;;5085008;28;20455;-82
2024/02/16 11:26:19;;;;;;;3.90;2.10;;;16.50;99.90;;;;;;5085697;28;20487;-82
2024/02/16 11:28:46;;;;;;;5.03;2.97;;;16.60;99.90;;;;;;5074425;28;20578;-83
2024/02/16 11:31:15;;;;;;;4.70;2.70;;;16.50;99.90;;;;;;5081821;28;20513;-81
2024/02/16 11:33:45;;;;;;;8.30;3.70;;;16.40;99.90;;;;;;5079295;28;20522;-80
2024/02/16 11:36:12;;;;;;;4.37;2.70;;;16.30;99.90;;;;;;5082809;28;20454;-80
2024/02/16 11:38:43;;;;;;;7.10;2.63;;;16.20;99.90;;;;;;5075720;28;20555;-80
2024/02/16 11:41:10;;;;;;;6.30;2.23;;;16.10;99.90;;;;;;5055466;28;20568;-82
2024/02/16 11:43:37;;;;;;;6.00;2.70;;;15.90;99.90;;;;;;5060719;28;20489;-80
2024/02/16 11:46:13;;;;;;;4.30;2.50;;;15.90;99.90;;;;;;5057475;28;20490;-80
2024/02/16 11:48:41;;;;;;;4.90;2.47;;;15.80;99.90;;;;;;5055041;28;20478;-83
2024/02/16 11:51:08;;;;;;;3.70;2.60;;;15.80;99.90;;;;;;5063017;28;20827;-82
2024/02/16 11:53:36;;;;;;;5.33;3.13;;;15.80;99.90;;;;;;5055557;28;20458;-83
2024/02/16 11:56:05;;;;;;;6.40;2.77;;;15.70;99.90;;;;;;5052192;28;20469;-80
2024/02/16 11:58:32;;;;;;;10.20;2.70;;;15.70;99.90;;;;;;5051231;28;20996;-81
2024/02/16 12:00:59;;;;;;;6.47;3.43;;;15.60;99.90;;;;;;5056626;28;20578;-80
2024/02/16 12:03:28;;;;;;;4.40;2.70;;;15.70;99.90;;;;;;5053496;28;20905;-82
2024/02/16 12:05:55;;;;;;;6.83;2.80;;;15.70;99.90;;;;;;5049508;28;20562;-79
2024/02/16 12:08:23;;;;;;;4.60;2.40;;;15.60;99.90;;;;;;5054825;28;20536;-81
2024/02/16 12:10:50;;;;;;;4.97;2.40;;;15.70;99.90;;;;;;5049827;28;20570;-83
2024/02/16 12:13:19;;;;;;;7.83;3.60;;;15.70;99.90;;;;;;5052645;28;20566;-83
2024/02/16 12:15:46;;;;;;;4.10;2.33;;;15.60;99.90;;;;;;5051614;28;20441;-80
2024/02/16 12:18:20;;;;;;;7.97;2.60;;;15.60;99.90;;;;;;5054406;28;20471;-82
2024/02/16 12:20:58;;;;;;;7.50;2.80;;;15.60;99.90;;;;;;5058993;28;20531;-80
2024/02/16 12:23:24;;;;;;;4.93;2.47;;;15.60;99.90;;;;;;5062314;28;20949;-81
2024/02/16 12:25:51;;;;;;;5.23;2.90;;;15.60;99.90;;;;;;5056142;28;20562;-81
2024/02/16 12:28:20;;;;;;;5.20;2.63;;;15.70;99.90;;;;;;5060398;28;20954;-82
2024/02/16 12:30:47;;;;;;;7.17;3.27;;;15.60;99.90;;;;;;5057006;28;20473;-81
2024/02/16 12:33:13;;;;;;;11.50;3.40;;;15.60;99.90;;;;;;5057787;28;20439;-82
2024/02/16 12:35:40;;;;;;;5.80;2.87;;;15.60;99.90;;;;;;5054363;28;20488;-81
2024/02/16 12:38:07;;;;;;;9.33;3.30;;;15.60;99.90;;;;;;5057010;28;20453;-79
2024/02/16 12:40:34;;;;;;;4.70;3.33;;;15.60;99.90;;;;;;5066093;28;20561;-81
2024/02/16 12:43:01;;;;;;;7.20;3.03;;;15.50;99.90;;;;;;5083154;28;20460;-81
2024/02/16 12:45:29;;;;;;;12.03;7.37;;;15.40;99.90;;;;;;5077735;28;20450;-79
2024/02/16 12:47:56;;;;;;;4.07;2.33;;;15.50;99.90;;;;;;5069748;28;20520;-80
2024/02/16 12:50:22;;;;;;;8.70;3.17;;;15.30;99.90;;;;;;5081870;28;20539;-82
2024/02/16 12:52:49;;;;;;;7.00;3.00;;;15.40;99.90;;;;;;5077934;28;20484;-80